This is the latest recevied weather packets stored in our database for station/object DL1DH-17. If no packets are shown the sender has not sent any weather packets the latest 10 day(s).
| Time | Temp. | Humidity | Pressure | Rain* | Wind** | Luminosity | Snow |
|---|---|---|---|---|---|---|---|
| 1777781184 | 10.56° C | 62% | 976.4 hPa | - | - | - | - |
| 1777780344 | 10.56° C | 62% | 976.4 hPa | - | - | - | - |
| 1777779504 | 10° C | 62% | 976.4 hPa | - | - | - | - |
| 1777778664 | 10° C | 62% | 976.6 hPa | - | - | - | - |
| 1777777824 | 10° C | 61% | 976.8 hPa | - | - | - | - |
| 1777776984 | 10.56° C | 59% | 976.7 hPa | - | - | - | - |
| 1777776144 | 11.67° C | 54% | 976.3 hPa | - | - | - | - |
| 1777775304 | 11.67° C | 54% | 976.2 hPa | - | - | - | - |
| 1777774463 | 11.67° C | 57% | 976.4 hPa | - | - | - | - |
| 1777773623 | 11.67° C | 56% | 976.4 hPa | - | - | - | - |
| 1777772783 | 11.67° C | 55% | 976.5 hPa | - | - | - | - |
| 1777771943 | 11.67° C | 55% | 976.6 hPa | - | - | - | - |
| 1777771103 | 11.67° C | 54% | 976.7 hPa | - | - | - | - |
| 1777770262 | 12.22° C | 51% | 976.7 hPa | - | - | - | - |
| 1777769422 | 12.78° C | 50% | 976.9 hPa | - | - | - | - |
| 1777768582 | 12.78° C | 49% | 976.8 hPa | - | - | - | - |
| 1777767742 | 12.22° C | 51% | 976.9 hPa | - | - | - | - |
| 1777766902 | 12.22° C | 50% | 977.1 hPa | - | - | - | - |
| 1777766061 | 12.78° C | 47% | 977.1 hPa | - | - | - | - |
| 1777765221 | 12.78° C | 47% | 977.1 hPa | - | - | - | - |
| 1777764380 | 12.78° C | 48% | 977.3 hPa | - | - | - | - |
| 1777763539 | 12.78° C | 47% | 977.3 hPa | - | - | - | - |
| 1777762699 | 13.33° C | 47% | 977.3 hPa | - | - | - | - |
| 1777761859 | 13.33° C | 46% | 977.5 hPa | - | - | - | - |
| 1777761019 | 13.89° C | 42% | 977.4 hPa | - | - | - | - |
* Rain since midnight (hover to see other rain measurements)
** Current wind speed in m/s (hover to see current wind gust speed)